Time;durP1;ratioP1;P1;durP2;ratioP2;P2;SDS_P1;SDS_P2;PMS_P1;PMS_P2;Temp;Humidity;BMP_temperature;BMP_pressure;BME280_temperature;BME280_humidity;BME280_pressure;Samples;Min_cycle;Max_cycle;Signal;HPM_P1;HPM_P2
2022/03/01 00:01:19;;;;;;;;;;;4.60;1.00;;;;;;10368327;28;84758;-48
2022/03/01 00:06:19;;;;;;;;;;;4.50;1.00;;;;;;10373152;28;85088;-45
2022/03/01 00:11:22;;;;;;;;;;;4.40;1.00;;;;;;10327677;28;85281;-45
2022/03/01 00:16:23;;;;;;;;;;;4.40;1.00;;;;;;10331992;28;84811;-45
2022/03/01 00:21:24;;;;;;;;;;;4.40;1.00;;;;;;10332604;28;84027;-45
2022/03/01 00:26:25;;;;;;;;;;;4.30;1.00;;;;;;10351127;28;84880;-45
2022/03/01 00:31:26;;;;;;;;;;;4.20;1.00;;;;;;10374301;28;84746;-45
2022/03/01 00:36:26;;;;;;;;;;;4.20;1.00;;;;;;10354865;28;84734;-48
2022/03/01 00:41:27;;;;;;;;;;;4.10;1.00;;;;;;10371664;28;84766;-48
2022/03/01 00:46:27;;;;;;;;;;;4.10;1.00;;;;;;10330758;28;85122;-49
2022/03/01 00:51:28;;;;;;;;;;;4.00;1.00;;;;;;10331374;28;86232;-46
2022/03/01 00:56:30;;;;;;;;;;;3.90;1.00;;;;;;10331068;28;84128;-46
2022/03/01 01:01:31;;;;;;;;;;;3.80;1.00;;;;;;10290783;28;84972;-46
2022/03/01 01:06:31;;;;;;;;;;;3.70;1.00;;;;;;10322961;28;84087;-46
2022/03/01 01:11:32;;;;;;;;;;;3.60;1.00;;;;;;10329836;28;84395;-48
2022/03/01 01:16:32;;;;;;;;;;;3.60;1.00;;;;;;10328650;28;85087;-46
2022/03/01 01:26:52;;;;;;;;;;;3.20;1.00;;;;;;10329175;28;84483;-46
2022/03/01 01:31:53;;;;;;;;;;;3.20;1.00;;;;;;10329429;28;84923;-46
2022/03/01 01:36:53;;;;;;;;;;;3.20;1.00;;;;;;10329090;28;84324;-46
2022/03/01 01:41:54;;;;;;;;;;;3.10;1.00;;;;;;10328016;28;84068;-46
2022/03/01 01:46:54;;;;;;;;;;;3.10;1.00;;;;;;10328984;28;84936;-49
2022/03/01 01:51:55;;;;;;;;;;;3.00;1.00;;;;;;10329006;28;85399;-45
2022/03/01 01:56:55;;;;;;;;;;;3.00;1.00;;;;;;10327885;28;84950;-43
2022/03/01 02:01:56;;;;;;;;;;;2.90;1.00;;;;;;10328955;28;84111;-47
2022/03/01 02:06:57;;;;;;;;;;;2.90;1.00;;;;;;10328058;28;84492;-45
2022/03/01 02:11:57;;;;;;;;;;;2.80;1.00;;;;;;10296039;28;84149;-47
2022/03/01 02:16:59;;;;;;;;;;;2.90;1.00;;;;;;10287714;28;84179;-47
2022/03/01 02:22:00;;;;;;;;;;;2.90;1.00;;;;;;10288351;28;84955;-47
2022/03/01 02:27:01;;;;;;;;;;;3.00;1.00;;;;;;10310821;28;84719;-47
2022/03/01 02:32:04;;;;;;;;;;;3.00;1.00;;;;;;10328472;28;84082;-46
2022/03/01 02:37:05;;;;;;;;;;;2.90;1.00;;;;;;10326926;28;84019;-46
2022/03/01 02:42:05;;;;;;;;;;;2.80;1.00;;;;;;10317300;28;84032;-49
2022/03/01 02:47:06;;;;;;;;;;;2.90;1.00;;;;;;10286514;28;83939;-46
2022/03/01 02:52:06;;;;;;;;;;;2.90;1.00;;;;;;10287230;28;84034;-49
2022/03/01 02:57:07;;;;;;;;;;;2.80;1.00;;;;;;10287370;28;84704;-48
2022/03/01 03:02:09;;;;;;;;;;;2.80;1.00;;;;;;10299990;28;84546;-46
2022/03/01 03:07:10;;;;;;;;;;;2.70;1.00;;;;;;10315887;28;84693;-46
2022/03/01 03:12:10;;;;;;;;;;;2.70;1.00;;;;;;10327354;28;84228;-47
2022/03/01 03:17:11;;;;;;;;;;;2.50;1.00;;;;;;10324959;28;84368;-47
2022/03/01 03:22:12;;;;;;;;;;;2.50;1.00;;;;;;10325575;28;85927;-46
2022/03/01 03:27:12;;;;;;;;;;;2.50;1.00;;;;;;10322178;28;84796;-46
2022/03/01 03:32:13;;;;;;;;;;;2.50;1.00;;;;;;10326602;28;84969;-45
2022/03/01 03:37:14;;;;;;;;;;;2.60;1.00;;;;;;10326805;28;84679;-48
2022/03/01 03:42:14;;;;;;;;;;;2.50;1.00;;;;;;10300232;28;84194;-50
2022/03/01 03:47:15;;;;;;;;;;;2.50;1.00;;;;;;10319942;28;85093;-46
2022/03/01 03:52:15;;;;;;;;;;;2.60;1.00;;;;;;10331389;28;84524;-48
2022/03/01 03:57:16;;;;;;;;;;;2.50;1.00;;;;;;10332710;28;84641;-44
2022/03/01 04:02:17;;;;;;;;;;;2.50;1.00;;;;;;10317685;28;84882;-44
2022/03/01 04:07:17;;;;;;;;;;;2.40;1.00;;;;;;10435978;22;84990;-58
2022/03/01 04:12:18;;;;;;;;;;;2.40;1.00;;;;;;10456064;28;84907;-58
2022/03/01 04:17:18;;;;;;;;;;;2.40;1.00;;;;;;10455196;27;84951;-56
2022/03/01 04:22:19;;;;;;;;;;;2.40;1.00;;;;;;10420359;28;84947;-56
2022/03/01 04:27:20;;;;;;;;;;;2.40;1.00;;;;;;10418842;28;84130;-55
2022/03/01 04:32:20;;;;;;;;;;;2.30;1.00;;;;;;10372812;28;84959;-56
2022/03/01 04:37:21;;;;;;;;;;;2.10;1.00;;;;;;10371763;28;84139;-59
2022/03/01 04:42:21;;;;;;;;;;;2.10;1.00;;;;;;10412482;28;84991;-57
2022/03/01 04:47:22;;;;;;;;;;;2.10;1.00;;;;;;10411491;28;84976;-57
2022/03/01 04:52:22;;;;;;;;;;;1.90;1.00;;;;;;10413292;28;84207;-59
2022/03/01 04:57:23;;;;;;;;;;;1.90;1.00;;;;;;10414067;28;85654;-55
2022/03/01 05:02:23;;;;;;;;;;;1.90;1.00;;;;;;10454289;28;84169;-59
2022/03/01 05:07:24;;;;;;;;;;;1.90;1.00;;;;;;10453785;27;84308;-57
2022/03/01 05:12:26;;;;;;;;;;;1.90;1.00;;;;;;10431057;27;104826;-56
2022/03/01 05:17:27;;;;;;;;;;;1.90;1.00;;;;;;10410428;28;84182;-59
2022/03/01 05:22:27;;;;;;;;;;;1.80;1.00;;;;;;10410831;28;84790;-57
2022/03/01 05:27:28;;;;;;;;;;;1.80;1.00;;;;;;10410629;28;86855;-58
2022/03/01 05:32:29;;;;;;;;;;;1.80;1.00;;;;;;10413748;28;85094;-57
2022/03/01 05:37:30;;;;;;;;;;;1.70;1.00;;;;;;10414378;28;84243;-54
2022/03/01 05:42:31;;;;;;;;;;;1.60;1.00;;;;;;10414879;28;84308;-59
2022/03/01 05:47:31;;;;;;;;;;;1.60;1.00;;;;;;10411587;28;84980;-59
2022/03/01 05:52:32;;;;;;;;;;;1.60;1.00;;;;;;10415970;28;84664;-58
2022/03/01 05:57:33;;;;;;;;;;;1.60;1.00;;;;;;10414682;28;84570;-58
2022/03/01 06:02:34;;;;;;;;;;;1.70;1.00;;;;;;10443589;27;85335;-59
2022/03/01 06:07:34;;;;;;;;;;;1.80;1.00;;;;;;10411594;28;85719;-57
2022/03/01 06:12:35;;;;;;;;;;;1.70;1.00;;;;;;10410069;28;84099;-57
2022/03/01 06:17:36;;;;;;;;;;;1.90;1.00;;;;;;10404047;28;84264;-58
2022/03/01 06:22:37;;;;;;;;;;;2.00;1.00;;;;;;10409064;28;84954;-56
2022/03/01 06:27:38;;;;;;;;;;;2.10;1.00;;;;;;10409139;28;84149;-57
2022/03/01 06:32:38;;;;;;;;;;;2.20;1.00;;;;;;10408490;28;84872;-56
2022/03/01 06:37:39;;;;;;;;;;;2.30;1.00;;;;;;10407962;28;85235;-58
2022/03/01 06:42:40;;;;;;;;;;;2.30;1.00;;;;;;10409681;28;84065;-56
2022/03/01 06:47:41;;;;;;;;;;;2.60;1.00;;;;;;10409432;28;85046;-56
2022/03/01 06:52:41;;;;;;;;;;;2.70;1.00;;;;;;10406849;28;84945;-56
2022/03/01 06:57:43;;;;;;;;;;;2.70;1.00;;;;;;10407338;28;84908;-56
2022/03/01 07:02:43;;;;;;;;;;;2.90;1.00;;;;;;10408823;28;84237;-55
2022/03/01 07:07:44;;;;;;;;;;;3.10;1.00;;;;;;10398280;28;84628;-56
2022/03/01 07:12:45;;;;;;;;;;;3.20;1.00;;;;;;10407073;28;85224;-56
2022/03/01 07:17:46;;;;;;;;;;;3.30;1.00;;;;;;10407265;28;84876;-58
2022/03/01 07:22:47;;;;;;;;;;;3.40;1.00;;;;;;10408214;28;84877;-57
2022/03/01 07:27:51;;;;;;;;;;;3.50;1.00;;;;;;10406703;28;84779;-58
2022/03/01 07:32:52;;;;;;;;;;;3.60;1.00;;;;;;10406461;28;84576;-56
2022/03/01 07:37:53;;;;;;;;;;;3.80;1.00;;;;;;10437784;27;87002;-55
2022/03/01 07:42:54;;;;;;;;;;;4.10;1.00;;;;;;10407553;28;84908;-55
2022/03/01 07:47:56;;;;;;;;;;;4.10;1.00;;;;;;10407060;28;84232;-58
2022/03/01 07:52:56;;;;;;;;;;;4.10;1.00;;;;;;10408099;28;84768;-58
2022/03/01 07:57:57;;;;;;;;;;;4.00;1.00;;;;;;10406763;28;84514;-58
2022/03/01 08:02:57;;;;;;;;;;;4.10;1.00;;;;;;10407133;28;84918;-59
2022/03/01 08:07:58;;;;;;;;;;;4.20;1.00;;;;;;10403311;28;84260;-57
2022/03/01 08:12:59;;;;;;;;;;;4.50;1.00;;;;;;10406827;28;84577;-58
2022/03/01 08:17:59;;;;;;;;;;;4.70;1.00;;;;;;10406333;28;84997;-58
2022/03/01 08:23:02;;;;;;;;;;;4.80;1.00;;;;;;10408577;28;84866;-55
2022/03/01 08:28:02;;;;;;;;;;;5.20;1.00;;;;;;10411887;28;85075;-56
2022/03/01 08:33:03;;;;;;;;;;;6.00;1.00;;;;;;10413971;28;84154;-57
2022/03/01 08:38:04;;;;;;;;;;;6.50;99.90;;;;;;10411361;28;84137;-56
2022/03/01 08:43:09;;;;;;;;;;;6.50;99.90;;;;;;10413331;28;84006;-58
2022/03/01 08:48:09;;;;;;;;;;;6.80;99.90;;;;;;10412480;28;84895;-57
2022/03/01 08:53:10;;;;;;;;;;;7.90;93.00;;;;;;10408820;28;87272;-58
2022/03/01 08:58:11;;;;;;;;;;;8.80;1.00;;;;;;10410186;28;84858;-59
2022/03/01 09:03:12;;;;;;;;;;;9.70;1.00;;;;;;10400600;28;84746;-59
2022/03/01 09:08:14;;;;;;;;;;;10.50;10.90;;;;;;10406660;28;84222;-54
2022/03/01 09:13:14;;;;;;;;;;;11.50;33.90;;;;;;10381035;28;84166;-58
2022/03/01 09:18:15;;;;;;;;;;;12.20;1.00;;;;;;10415160;28;85235;-56
2022/03/01 09:23:15;;;;;;;;;;;12.50;1.00;;;;;;10420596;28;84930;-57
2022/03/01 09:28:17;;;;;;;;;;;12.60;99.90;;;;;;10449920;27;86266;-57
2022/03/01 09:33:17;;;;;;;;;;;12.40;3.90;;;;;;10444022;27;84203;-57
2022/03/01 09:38:18;;;;;;;;;;;12.50;1.00;;;;;;10408257;28;84335;-58
2022/03/01 09:43:20;;;;;;;;;;;13.30;99.90;;;;;;10410356;28;84932;-57
2022/03/01 09:48:21;;;;;;;;;;;13.80;1.00;;;;;;10409804;28;84217;-54
2022/03/01 09:53:21;;;;;;;;;;;14.00;1.00;;;;;;10408394;28;86893;-58
2022/03/01 09:58:22;;;;;;;;;;;13.40;1.00;;;;;;10409921;28;84114;-58
2022/03/01 10:08:42;;;;;;;;;;;12.10;1.00;;;;;;10429210;28;84587;-47
2022/03/01 10:13:43;;;;;;;;;;;11.60;1.00;;;;;;10423233;27;86713;-46
2022/03/01 10:18:52;;;;;;;;;;;10.60;1.00;;;;;;10407424;28;84879;-46
2022/03/01 10:23:56;;;;;;;;;;;10.00;1.00;;;;;;10407992;28;84891;-46
2022/03/01 10:28:57;;;;;;;;;;;10.20;1.00;;;;;;10406730;28;84195;-48
2022/03/01 10:34:02;;;;;;;;;;;11.40;1.00;;;;;;10409538;28;84059;-48
2022/03/01 10:39:13;;;;;;;;;;;12.70;1.00;;;;;;10364752;28;87224;-47
2022/03/01 10:44:32;;;;;;;;;;;13.40;1.00;;;;;;10404405;28;84903;-46
2022/03/01 10:49:34;;;;;;;;;;;14.70;1.00;;;;;;10406515;28;84789;-47
2022/03/01 10:54:38;;;;;;;;;;;16.00;1.00;;;;;;10407888;28;86560;-48
2022/03/01 10:59:39;;;;;;;;;;;15.00;1.00;;;;;;10407318;28;84171;-49
2022/03/01 11:04:40;;;;;;;;;;;14.40;1.00;;;;;;10407074;28;84997;-48
2022/03/01 11:09:41;;;;;;;;;;;14.30;99.90;;;;;;10407065;28;84149;-46
2022/03/01 11:15:03;;;;;;;;;;;13.90;94.00;;;;;;10407388;28;85702;-51
2022/03/01 11:20:06;;;;;;;;;;;13.20;35.70;;;;;;10407297;28;85016;-48
2022/03/01 11:25:13;;;;;;;;;;;12.70;72.80;;;;;;10405463;28;85040;-50
2022/03/01 11:30:14;;;;;;;;;;;12.50;1.00;;;;;;10388674;28;84824;-50
2022/03/01 11:35:22;;;;;;;;;;;12.50;1.00;;;;;;10405431;28;85855;-50
2022/03/01 11:40:23;;;;;;;;;;;12.50;1.00;;;;;;10386431;28;84820;-47
2022/03/01 11:45:32;;;;;;;;;;;12.40;1.00;;;;;;10404527;28;84856;-45
2022/03/01 11:50:32;;;;;;;;;;;12.50;1.00;;;;;;10403120;28;84876;-48
2022/03/01 11:55:47;;;;;;;;;;;12.30;1.00;;;;;;10403853;28;85304;-47
2022/03/01 12:00:48;;;;;;;;;;;12.50;99.90;;;;;;10388476;28;84230;-49
2022/03/01 12:05:49;;;;;;;;;;;12.40;99.90;;;;;;10410553;28;84797;-46
2022/03/01 12:10:58;;;;;;;;;;;12.70;78.70;;;;;;10379587;28;84298;-46
2022/03/01 12:15:58;;;;;;;;;;;13.00;65.50;;;;;;10407075;28;84924;-48
2022/03/01 12:21:04;;;;;;;;;;;13.50;61.80;;;;;;10412016;28;84834;-49
2022/03/01 12:26:06;;;;;;;;;;;14.40;99.90;;;;;;10410022;28;85083;-46
2022/03/01 12:31:14;;;;;;;;;;;14.60;70.40;;;;;;10409213;28;84213;-48
2022/03/01 12:36:26;;;;;;;;;;;14.20;99.90;;;;;;10409825;28;84162;-47
2022/03/01 12:41:27;;;;;;;;;;;13.70;93.30;;;;;;10408339;28;84214;-47
2022/03/01 12:46:28;;;;;;;;;;;13.30;90.20;;;;;;10409753;28;84250;-45
2022/03/01 12:51:29;;;;;;;;;;;13.10;1.00;;;;;;10410596;28;84227;-50
2022/03/01 12:56:31;;;;;;;;;;;12.90;1.00;;;;;;10409419;28;85114;-44
2022/03/01 13:01:32;;;;;;;;;;;12.50;1.00;;;;;;10410052;28;84218;-50
2022/03/01 13:06:33;;;;;;;;;;;12.40;1.00;;;;;;10410001;28;84572;-51
2022/03/01 13:11:34;;;;;;;;;;;12.30;1.00;;;;;;10410015;28;84906;-49
2022/03/01 13:16:36;;;;;;;;;;;12.40;1.00;;;;;;10408954;28;84174;-47
2022/03/01 13:21:41;;;;;;;;;;;12.40;1.00;;;;;;10410658;28;84165;-44
2022/03/01 13:26:43;;;;;;;;;;;12.60;1.00;;;;;;10380901;28;86358;-46
2022/03/01 13:31:44;;;;;;;;;;;12.50;1.00;;;;;;10409510;28;84121;-47
2022/03/01 13:36:48;;;;;;;;;;;12.50;1.00;;;;;;10408260;28;84735;-48
2022/03/01 13:41:52;;;;;;;;;;;12.20;1.00;;;;;;10408878;28;84777;-49
2022/03/01 13:46:54;;;;;;;;;;;12.00;1.00;;;;;;10389319;28;86067;-48
2022/03/01 13:52:11;;;;;;;;;;;11.80;99.90;;;;;;10409110;28;85002;-48
2022/03/01 13:57:42;;;;;;;;;;;11.90;1.00;;;;;;10406956;28;84108;-46
2022/03/01 14:03:02;;;;;;;;;;;11.60;99.90;;;;;;10392305;28;84088;-49
2022/03/01 14:08:03;;;;;;;;;;;11.60;99.90;;;;;;10395250;28;84173;-45
2022/03/01 14:13:07;;;;;;;;;;;11.20;1.00;;;;;;10377076;28;85121;-51
2022/03/01 14:18:07;;;;;;;;;;;11.10;1.00;;;;;;10404508;28;84133;-50
2022/03/01 14:23:08;;;;;;;;;;;11.20;1.00;;;;;;10407209;28;84923;-46
2022/03/01 14:28:09;;;;;;;;;;;11.40;1.00;;;;;;10407083;28;84416;-46
2022/03/01 14:33:10;;;;;;;;;;;11.40;1.00;;;;;;10408203;28;84963;-49
2022/03/01 14:38:10;;;;;;;;;;;11.40;1.00;;;;;;10406309;28;84754;-48
2022/03/01 14:43:11;;;;;;;;;;;11.40;1.00;;;;;;10407675;28;84178;-50
2022/03/01 14:48:12;;;;;;;;;;;11.60;1.00;;;;;;10388255;28;86891;-50
2022/03/01 14:53:12;;;;;;;;;;;11.30;1.00;;;;;;10406752;28;84802;-45
2022/03/01 14:58:13;;;;;;;;;;;11.30;1.00;;;;;;10406013;28;84887;-48
2022/03/01 15:03:13;;;;;;;;;;;11.30;1.00;;;;;;10405358;28;84893;-47
2022/03/01 15:08:14;;;;;;;;;;;11.40;1.00;;;;;;10384060;28;84170;-48
2022/03/01 15:13:15;;;;;;;;;;;11.30;1.00;;;;;;10410374;28;86394;-46
2022/03/01 15:18:18;;;;;;;;;;;11.30;1.00;;;;;;10408210;28;85100;-46
2022/03/01 15:23:19;;;;;;;;;;;11.30;1.00;;;;;;10409412;28;84242;-46
2022/03/01 15:28:20;;;;;;;;;;;11.20;1.00;;;;;;10409018;28;84030;-46
2022/03/01 15:33:21;;;;;;;;;;;11.20;70.00;;;;;;10413405;28;84717;-48
2022/03/01 15:38:21;;;;;;;;;;;11.00;19.90;;;;;;10416372;28;84211;-48
2022/03/01 15:43:22;;;;;;;;;;;10.70;99.90;;;;;;10416297;28;84300;-47
2022/03/01 15:48:22;;;;;;;;;;;10.60;99.90;;;;;;10415444;28;84225;-45
2022/03/01 15:53:23;;;;;;;;;;;10.70;1.00;;;;;;10415828;28;84649;-48
2022/03/01 15:58:23;;;;;;;;;;;10.60;1.00;;;;;;10414524;28;84767;-46
2022/03/01 16:03:24;;;;;;;;;;;10.60;1.00;;;;;;10415651;28;85236;-47
2022/03/01 16:08:26;;;;;;;;;;;10.60;1.00;;;;;;10396916;28;85121;-45
2022/03/01 16:13:27;;;;;;;;;;;10.70;1.00;;;;;;10415499;28;84840;-47
2022/03/01 16:18:27;;;;;;;;;;;10.60;1.00;;;;;;10405409;28;84169;-49
2022/03/01 16:23:28;;;;;;;;;;;10.50;1.00;;;;;;10400327;28;84970;-50
2022/03/01 16:28:28;;;;;;;;;;;10.30;1.00;;;;;;10379568;28;86256;-47
2022/03/01 16:33:29;;;;;;;;;;;10.30;53.20;;;;;;10367447;28;86976;-47
2022/03/01 16:38:29;;;;;;;;;;;10.20;99.90;;;;;;10399401;28;85013;-48
2022/03/01 16:43:30;;;;;;;;;;;10.10;1.00;;;;;;10411880;28;84982;-45
2022/03/01 16:48:31;;;;;;;;;;;10.00;1.00;;;;;;10411565;28;84866;-45
2022/03/01 16:53:31;;;;;;;;;;;10.00;99.90;;;;;;10413251;28;85250;-46
2022/03/01 16:58:32;;;;;;;;;;;9.90;1.00;;;;;;10401601;28;84121;-48
2022/03/01 17:03:32;;;;;;;;;;;9.80;1.00;;;;;;10386241;28;85972;-47
2022/03/01 17:08:35;;;;;;;;;;;9.70;35.80;;;;;;10402142;28;84314;-51
2022/03/01 17:13:35;;;;;;;;;;;9.60;99.90;;;;;;10399488;28;84284;-47
2022/03/01 17:18:36;;;;;;;;;;;9.50;1.00;;;;;;10404084;28;85286;-47
2022/03/01 17:23:38;;;;;;;;;;;9.40;1.00;;;;;;10395188;28;84564;-46
2022/03/01 17:28:39;;;;;;;;;;;9.20;1.00;;;;;;10394653;28;84517;-48
2022/03/01 17:33:39;;;;;;;;;;;9.20;99.90;;;;;;10384167;28;84246;-49
2022/03/01 17:38:40;;;;;;;;;;;9.10;99.90;;;;;;10383205;28;84682;-47
2022/03/01 17:43:40;;;;;;;;;;;9.00;99.90;;;;;;10385783;28;84868;-49
2022/03/01 17:48:43;;;;;;;;;;;9.00;1.00;;;;;;10409675;28;84210;-50
2022/03/01 17:53:43;;;;;;;;;;;8.90;1.00;;;;;;10409056;28;84754;-47
2022/03/01 17:58:44;;;;;;;;;;;8.80;1.00;;;;;;10408611;28;84941;-47
2022/03/01 18:03:44;;;;;;;;;;;8.80;1.00;;;;;;10383419;28;84157;-45
2022/03/01 18:08:45;;;;;;;;;;;8.80;1.00;;;;;;10399494;28;84412;-48
2022/03/01 18:13:45;;;;;;;;;;;8.80;1.00;;;;;;10400207;28;84896;-50
2022/03/01 18:18:46;;;;;;;;;;;8.70;1.00;;;;;;10395783;28;85891;-48
2022/03/01 18:23:47;;;;;;;;;;;8.70;1.00;;;;;;10380651;28;84100;-52
2022/03/01 18:28:47;;;;;;;;;;;8.70;1.00;;;;;;10390619;28;84974;-52
2022/03/01 18:33:48;;;;;;;;;;;8.60;1.00;;;;;;10404118;28;84895;-50
2022/03/01 18:38:49;;;;;;;;;;;8.60;1.00;;;;;;10405867;28;84982;-53
2022/03/01 18:43:50;;;;;;;;;;;8.50;1.00;;;;;;10391052;28;84220;-46
2022/03/01 18:48:52;;;;;;;;;;;8.40;1.00;;;;;;10388848;28;84363;-52
2022/03/01 18:53:53;;;;;;;;;;;8.40;1.00;;;;;;10386418;28;85777;-46
2022/03/01 18:58:54;;;;;;;;;;;8.30;1.00;;;;;;10390267;28;84876;-50
2022/03/01 19:03:55;;;;;;;;;;;8.10;1.00;;;;;;10394334;28;84364;-45
2022/03/01 19:08:56;;;;;;;;;;;8.00;93.90;;;;;;10398718;28;84826;-48
2022/03/01 19:13:57;;;;;;;;;;;7.90;99.90;;;;;;10396517;28;84106;-50
2022/03/01 19:18:57;;;;;;;;;;;7.90;99.90;;;;;;10390019;28;84007;-48
2022/03/01 19:23:58;;;;;;;;;;;7.80;99.90;;;;;;10395580;28;84790;-46
2022/03/01 19:28:59;;;;;;;;;;;7.70;99.90;;;;;;10399757;28;84402;-47
2022/03/01 19:34:00;;;;;;;;;;;7.60;99.90;;;;;;10402400;28;84633;-46
2022/03/01 19:39:00;;;;;;;;;;;7.60;99.90;;;;;;10394383;28;84947;-50
2022/03/01 19:44:01;;;;;;;;;;;7.50;99.90;;;;;;10393102;28;84187;-50
2022/03/01 19:49:02;;;;;;;;;;;7.40;99.90;;;;;;10388226;28;86031;-51
2022/03/01 19:54:03;;;;;;;;;;;7.30;99.90;;;;;;10398015;28;84275;-50
2022/03/01 19:59:04;;;;;;;;;;;7.30;99.90;;;;;;10390881;28;84238;-48
2022/03/01 20:04:05;;;;;;;;;;;7.20;99.90;;;;;;10366813;28;85934;-49
2022/03/01 20:09:05;;;;;;;;;;;7.10;99.90;;;;;;10384496;28;84243;-48
2022/03/01 20:14:06;;;;;;;;;;;7.00;1.00;;;;;;10377263;28;84923;-49
2022/03/01 20:19:08;;;;;;;;;;;7.00;1.00;;;;;;10367497;28;84712;-47
2022/03/01 20:24:09;;;;;;;;;;;7.00;1.00;;;;;;10373493;28;84849;-52
2022/03/01 20:29:09;;;;;;;;;;;7.00;1.00;;;;;;10404691;28;84860;-49
2022/03/01 20:34:10;;;;;;;;;;;6.90;1.00;;;;;;10414068;28;84055;-49
2022/03/01 20:39:10;;;;;;;;;;;7.00;1.00;;;;;;10413288;28;85119;-49
2022/03/01 20:44:11;;;;;;;;;;;7.00;1.00;;;;;;10411827;28;84157;-47
2022/03/01 20:49:12;;;;;;;;;;;7.00;1.00;;;;;;10384522;28;84954;-49
2022/03/01 20:54:12;;;;;;;;;;;7.00;1.00;;;;;;10371977;28;84209;-49
2022/03/01 20:59:13;;;;;;;;;;;7.00;1.00;;;;;;10372644;28;84949;-46
2022/03/01 21:04:14;;;;;;;;;;;7.10;1.00;;;;;;10376074;28;84736;-49
2022/03/01 21:09:14;;;;;;;;;;;7.10;1.00;;;;;;10376980;28;84194;-47
2022/03/01 21:14:15;;;;;;;;;;;7.20;1.00;;;;;;10381078;28;84756;-47
2022/03/01 21:19:15;;;;;;;;;;;7.10;99.90;;;;;;10373181;28;86163;-47
2022/03/01 21:24:16;;;;;;;;;;;7.00;99.90;;;;;;10385102;28;84932;-47
2022/03/01 21:29:17;;;;;;;;;;;7.00;99.90;;;;;;10392903;28;85812;-47
2022/03/01 21:34:17;;;;;;;;;;;7.00;99.90;;;;;;10374897;28;85927;-48
2022/03/01 21:39:18;;;;;;;;;;;7.00;99.90;;;;;;10403185;28;84833;-46
2022/03/01 21:44:20;;;;;;;;;;;7.00;99.90;;;;;;10398327;28;84307;-48
2022/03/01 21:49:21;;;;;;;;;;;6.90;99.90;;;;;;10408817;28;84923;-48
2022/03/01 21:54:22;;;;;;;;;;;6.80;99.90;;;;;;10403801;28;84227;-46
2022/03/01 21:59:22;;;;;;;;;;;6.80;99.90;;;;;;10401063;28;84518;-48
2022/03/01 22:04:23;;;;;;;;;;;6.80;99.90;;;;;;10400466;28;84227;-52
2022/03/01 22:09:24;;;;;;;;;;;6.70;99.90;;;;;;10406446;28;84310;-47
2022/03/01 22:14:24;;;;;;;;;;;6.60;99.90;;;;;;10405256;28;84218;-47
2022/03/01 22:19:25;;;;;;;;;;;6.60;99.90;;;;;;10410918;28;86149;-49
2022/03/01 22:24:25;;;;;;;;;;;6.50;99.90;;;;;;10399045;28;85008;-49
2022/03/01 22:29:26;;;;;;;;;;;6.50;99.90;;;;;;10402637;28;84539;-46
2022/03/01 22:34:27;;;;;;;;;;;6.50;99.90;;;;;;10376643;28;87162;-47
2022/03/01 22:39:27;;;;;;;;;;;6.40;1.00;;;;;;10410837;28;84154;-48
2022/03/01 22:44:28;;;;;;;;;;;6.50;1.00;;;;;;10409846;28;84910;-46
2022/03/01 22:49:29;;;;;;;;;;;6.40;1.00;;;;;;10381679;28;84884;-49
2022/03/01 22:54:29;;;;;;;;;;;6.40;1.00;;;;;;10390291;28;84638;-48
2022/03/01 22:59:30;;;;;;;;;;;6.40;99.90;;;;;;10362976;28;84192;-48
2022/03/01 23:04:30;;;;;;;;;;;6.40;99.90;;;;;;10410533;28;84108;-48
2022/03/01 23:09:31;;;;;;;;;;;6.40;99.90;;;;;;10410381;28;84943;-46
2022/03/01 23:14:31;;;;;;;;;;;6.40;99.90;;;;;;10411351;28;84057;-48
2022/03/01 23:19:32;;;;;;;;;;;6.40;99.90;;;;;;10409895;28;86534;-47
2022/03/01 23:24:32;;;;;;;;;;;6.40;99.90;;;;;;10409841;28;84468;-46
2022/03/01 23:29:33;;;;;;;;;;;6.50;99.90;;;;;;10409635;28;85705;-50
2022/03/01 23:34:37;;;;;;;;;;;6.50;99.90;;;;;;10409415;28;84900;-49
2022/03/01 23:39:39;;;;;;;;;;;6.50;99.90;;;;;;10390597;28;85955;-50
2022/03/01 23:44:40;;;;;;;;;;;6.50;99.90;;;;;;10409201;28;84109;-49
2022/03/01 23:49:40;;;;;;;;;;;6.50;99.90;;;;;;10390698;28;87175;-46
2022/03/01 23:54:41;;;;;;;;;;;6.50;99.90;;;;;;10413728;28;84695;-48
2022/03/01 23:59:42;;;;;;;;;;;6.50;99.90;;;;;;10416008;28;84832;-46
